Main page
METAR-TAF:

METAR-TAF

Airports :

Kassel, Germany

Kassel Airport

latitude: 51-24N, longitude: 009-23E, elevation: 277 m

Current weather observation

The report was made 7 hours and 42 minutes ago, at 19:20 UTC
Wind 7 kt from the East/Southeast
Temperature 22°C
Humidity 53%
Pressure 1019 hPa
Visibility 10 km or more
no clouds below 1500 m and no cumulonimbus

METAR: EDVK 271920Z 12007KT CAVOK 22/12 Q1019

Time: 05:02 (03:02 UTC)

Forecast

The report was made 16 hours and 2 minutes ago, at 11:00 UTC
Forecast valid from 27 at 12 UTC to 27 at 21 UTC
Wind 9 kt from the Southeast
Visibility 10 km or more
no clouds below 1500 m and no cumulonimbus

TAF: EDVK 271100Z 2712/2721 13009KT CAVOK

Weather observations and forecasts of more than 4000 airports (METAR and TAF reports).

The available stations are represented by yellow and red dots on the map.

Hover mouse over dot to see the name of the station.

Then click to see weather observations and forecasts.

To change the map : click on the green buttons with a black cross to zoom in, on the green button with a dash to zoom out, or on the green arrows for adjacent maps.


METAR-TAF: